Home   Weather   Germany   Brilon   Past weeks
Flag for Germany

Past Weather in Brilon, North Rhine-Westphalia, Germany — Yesterday and Last 2 Weeks

Currently: 66 °F. Passing clouds. (Weather station: Paderborn / Lippstadt, Germany). See more current weather

Past Weather in Brilon — Graph

°F

Brilon Temperature Yesterday

Maximum temperature yesterday: 75 °F (at 1:20 pm)
Minimum temperature yesterday: 54 °F (at 3:20 am)
Average temperature yesterday: 65 °F

High & Low Weather Summary for the Past Weeks

 TemperatureHumidityPressure
High75 °F (Sep 14, 4:20 pm)100% (Sep 13, 6:20 am)30.42 "Hg (Sep 13, 6:20 am)
Low41 °F (Sep 20, 5:20 am)46% (Sep 23, 2:20 pm)29.83 "Hg (Sep 15, 1:50 pm)
Average59 °F79%30.07 "Hg
* Reported Sep 12 11:20 am — Sep 27 11:50 am, Brilon. Weather by CustomWeather, © 2021

Note: Actual official high and low records may vary slightly from our data, if they occured in-between our weather recording intervals... More about our weather records

Brilon Weather History for the Previous 24 Hours

Scroll right to see more
 ConditionsComfort  
Time TempWeatherWind HumidityBarometerVisibility
11:50 am
Mon, Sep 27
66 °FPartly sunny.7 mph68%29.98 "HgN/A
10:50 am64 °FPassing clouds.10 mph73%29.98 "HgN/A
10:20 am63 °FPassing clouds.7 mph77%29.98 "HgN/A
9:50 am63 °FSunny.6 mph77%29.98 "Hg10 mi
9:20 am63 °FSunny.9 mph77%29.98 "Hg10 mi
8:50 am61 °FSunny.5 mph83%29.98 "Hg10 mi
8:20 am59 °FSunny.8 mph88%29.98 "Hg10 mi
7:50 am59 °FSunny.9 mph88%30.01 "Hg10 mi
7:20 am59 °FPassing clouds.7 mph88%30.01 "HgN/A
6:50 am59 °FPassing clouds.7 mph88%30.01 "HgN/A
6:20 am59 °FPassing clouds.6 mph88%30.01 "HgN/A
5:50 am61 °FPassing clouds.8 mph83%30.01 "HgN/A
5:20 am61 °FPartly cloudy.7 mph83%30.01 "HgN/A
4:50 am63 °FPartly cloudy.9 mph83%30.01 "HgN/A
4:20 am63 °FPassing clouds.10 mph83%30.01 "HgN/A
3:50 am63 °FPassing clouds.6 mph83%30.01 "HgN/A
3:20 am63 °FPassing clouds.6 mph83%30.01 "HgN/A
2:50 am63 °FPassing clouds.6 mph83%30.01 "HgN/A
2:20 am63 °FPassing clouds.7 mph83%30.01 "HgN/A
1:50 am63 °FPassing clouds.7 mph83%30.01 "HgN/A
1:20 am63 °FClear.5 mph83%30.01 "Hg10 mi
12:50 am63 °FClear.5 mph83%30.01 "Hg10 mi
12:20 am63 °FPassing clouds.3 mph83%30.01 "HgN/A
11:50 pm
Sun, Sep 26
63 °FClear.3 mph83%30.01 "Hg10 mi
11:20 pm63 °FClear.5 mph88%30.01 "Hg10 mi
10:50 pm64 °FClear.5 mph83%30.04 "Hg10 mi
10:20 pm64 °FClear.8 mph78%30.01 "Hg10 mi
9:50 pm64 °FClear.7 mph83%30.01 "Hg10 mi
9:20 pm64 °FClear.6 mph83%30.01 "Hg10 mi
8:50 pm64 °FPassing clouds.5 mph83%30.01 "HgN/A
8:20 pm64 °FPassing clouds.5 mph83%30.01 "HgN/A
7:50 pm64 °FPassing clouds.7 mph83%30.01 "HgN/A
7:20 pm66 °FPartly cloudy.7 mph78%30.01 "HgN/A
6:50 pm68 °FLight rain. Partly sunny.8 mph73%29.98 "HgN/A
6:20 pm70 °FPartly sunny.5 mph69%29.98 "HgN/A
5:50 pm70 °FOvercast.5 mph64%29.98 "HgN/A
5:20 pm72 °FScattered clouds.8 mph61%29.98 "HgN/A
4:50 pm73 °FScattered clouds.9 mph61%29.98 "HgN/A
4:20 pm73 °FPassing clouds.7 mph57%29.98 "HgN/A
3:50 pm73 °FPassing clouds.9 mph57%29.98 "HgN/A
3:20 pm73 °FPassing clouds.9 mph57%29.98 "HgN/A
2:50 pm75 °FPassing clouds.12 mph54%29.98 "HgN/A
2:20 pm73 °FPassing clouds.12 mph61%29.98 "HgN/A
1:50 pm73 °FPassing clouds.12 mph61%30.01 "HgN/A
1:20 pm75 °FScattered clouds.12 mph61%30.01 "HgN/A
12:50 pm73 °FPassing clouds.6 mph65%29.98 "HgN/A
12:20 pm72 °FPassing clouds.8 mph65%29.98 "HgN/A
Weather by CustomWeather, © 2021

See weather overview